Time,TemperatureF,DewpointF,PressureIn,WindDirection,WindDirectionDegrees,WindSpeedMPH,WindSpeedGustMPH,Humidity,HourlyPrecipIn,Conditions,Clouds,dailyrainin,SoftwareType,DateUTC
2013-06-28 00:05:00,69.0,67.2,29.63,North,32767,-999.0,0.0,94,0.00,,,0.00,Wunderground v.1.15,2013-06-28 04:05:00,
2013-06-28 00:10:00,68.8,67.0,29.63,North,32767,-999.0,0.0,94,0.00,,,0.00,Wunderground v.1.15,2013-06-28 04:10:00,
2013-06-28 00:15:00,68.7,66.9,29.63,North,32767,-999.0,0.0,94,0.00,,,0.00,Wunderground v.1.15,2013-06-28 04:15:00,
2013-06-28 00:20:00,68.6,66.8,29.63,North,32767,-999.0,0.0,94,0.00,,,0.00,Wunderground v.1.15,2013-06-28 04:20:00,
2013-06-28 00:30:00,68.0,66.2,29.62,North,32767,-999.0,0.0,94,0.00,,,0.00,Wunderground v.1.15,2013-06-28 04:30:00,
2013-06-28 00:40:00,68.0,66.5,29.62,North,32767,-999.0,0.0,95,0.00,,,0.00,Wunderground v.1.15,2013-06-28 04:40:00,
2013-06-28 00:50:00,67.8,66.3,29.62,North,32767,-999.0,0.0,95,0.00,,,0.00,Wunderground v.1.15,2013-06-28 04:50:00,
2013-06-28 00:55:00,67.8,66.3,29.62,North,32767,-999.0,0.0,95,0.00,,,0.00,Wunderground v.1.15,2013-06-28 04:55:00,
2013-06-28 01:00:00,68.0,66.5,29.62,North,32767,-999.0,0.0,95,0.00,,,0.00,Wunderground v.1.15,2013-06-28 05:00:00,
2013-06-28 01:05:00,68.0,66.5,29.62,North,32767,-999.0,0.0,95,0.00,,,0.00,Wunderground v.1.15,2013-06-28 05:05:00,
2013-06-28 01:15:00,67.9,66.4,29.61,North,32767,-999.0,0.0,95,0.00,,,0.00,Wunderground v.1.15,2013-06-28 05:15:00,
2013-06-28 01:25:00,67.9,66.4,29.61,North,32767,-999.0,0.0,95,0.00,,,0.00,Wunderground v.1.15,2013-06-28 05:25:00,
2013-06-28 01:30:00,67.8,66.3,29.61,North,32767,-999.0,0.0,95,0.00,,,0.00,Wunderground v.1.15,2013-06-28 05:30:00,
2013-06-28 01:40:00,67.6,66.4,29.61,North,32767,-999.0,0.0,96,0.00,,,0.00,Wunderground v.1.15,2013-06-28 05:40:00,
2013-06-28 01:45:00,67.5,66.0,29.61,North,32767,-999.0,0.0,95,0.00,,,0.00,Wunderground v.1.15,2013-06-28 05:45:00,
2013-06-28 01:55:00,67.5,66.3,29.61,North,32767,-999.0,0.0,96,0.00,,,0.00,Wunderground v.1.15,2013-06-28 05:55:00,
2013-06-28 02:05:00,67.3,66.1,29.61,North,32767,-999.0,0.0,96,0.00,,,0.00,Wunderground v.1.15,2013-06-28 06:05:00,
2013-06-28 02:10:00,67.1,65.9,29.61,North,32767,-999.0,0.0,96,0.00,,,0.00,Wunderground v.1.15,2013-06-28 06:10:00,
2013-06-28 02:20:00,67.0,65.8,29.61,North,32767,-999.0,0.0,96,0.00,,,0.00,Wunderground v.1.15,2013-06-28 06:20:00,
2013-06-28 02:25:00,66.9,65.7,29.61,North,32767,-999.0,0.0,96,0.00,,,0.00,Wunderground v.1.15,2013-06-28 06:25:00,
2013-06-28 02:35:00,67.0,65.8,29.61,North,32767,-999.0,0.0,96,0.00,,,0.00,Wunderground v.1.15,2013-06-28 06:35:00,
2013-06-28 02:45:00,66.8,65.6,29.61,North,32767,-999.0,0.0,96,0.00,,,0.00,Wunderground v.1.15,2013-06-28 06:45:00,
2013-06-28 02:55:00,66.7,65.5,29.61,North,32767,-999.0,0.0,96,0.00,,,0.00,Wunderground v.1.15,2013-06-28 06:55:00,
2013-06-28 03:05:00,66.5,65.3,29.61,North,32767,-999.0,0.0,96,0.00,,,0.00,Wunderground v.1.15,2013-06-28 07:05:00,
2013-06-28 03:15:00,66.5,65.3,29.61,North,32767,-999.0,0.0,96,0.00,,,0.00,Wunderground v.1.15,2013-06-28 07:15:00,
2013-06-28 03:25:00,66.2,65.0,29.61,North,32767,-999.0,0.0,96,0.00,,,0.00,Wunderground v.1.15,2013-06-28 07:25:00,
2013-06-28 03:35:00,66.2,65.0,29.61,North,32767,-999.0,0.0,96,0.00,,,0.00,Wunderground v.1.15,2013-06-28 07:35:00,
2013-06-28 03:45:00,66.2,65.0,29.60,North,32767,-999.0,0.0,96,0.00,,,0.00,Wunderground v.1.15,2013-06-28 07:45:00,
2013-06-28 03:55:00,66.0,64.8,29.60,North,32767,-999.0,0.0,96,0.00,,,0.00,Wunderground v.1.15,2013-06-28 07:55:00,
2013-06-28 04:05:00,65.8,64.6,29.60,North,32767,-999.0,0.0,96,0.00,,,0.00,Wunderground v.1.15,2013-06-28 08:05:00,
2013-06-28 04:15:00,65.7,64.8,29.60,North,32767,-999.0,0.0,97,0.00,,,0.00,Wunderground v.1.15,2013-06-28 08:15:00,
2013-06-28 04:25:00,65.6,64.4,29.60,North,32767,-999.0,0.0,96,0.00,,,0.00,Wunderground v.1.15,2013-06-28 08:25:00,
2013-06-28 04:30:00,65.4,64.2,29.60,North,32767,-999.0,0.0,96,0.00,,,0.00,Wunderground v.1.15,2013-06-28 08:30:00,
2013-06-28 04:40:00,65.2,64.3,29.61,North,32767,-999.0,0.0,97,0.00,,,0.00,Wunderground v.1.15,2013-06-28 08:40:00,
2013-06-28 04:45:00,65.0,64.1,29.60,North,32767,-999.0,0.0,97,0.00,,,0.00,Wunderground v.1.15,2013-06-28 08:45:00,
2013-06-28 04:55:00,64.6,63.7,29.60,North,32767,-999.0,0.0,97,0.00,,,0.00,Wunderground v.1.15,2013-06-28 08:55:00,
2013-06-28 05:05:00,64.4,63.5,29.60,North,32767,-999.0,0.0,97,0.00,,,0.00,Wunderground v.1.15,2013-06-28 09:05:00,
2013-06-28 05:15:00,64.4,63.2,29.60,North,32767,-999.0,0.0,96,0.00,,,0.00,Wunderground v.1.15,2013-06-28 09:15:00,
2013-06-28 05:25:00,64.4,63.5,29.60,North,32767,-999.0,0.0,97,0.00,,,0.00,Wunderground v.1.15,2013-06-28 09:25:00,
2013-06-28 05:30:00,64.4,63.5,29.60,North,32767,-999.0,0.0,97,0.00,,,0.00,Wunderground v.1.15,2013-06-28 09:30:00,
2013-06-28 05:35:00,64.4,63.5,29.59,North,32767,-999.0,0.0,97,0.00,,,0.00,Wunderground v.1.15,2013-06-28 09:35:00,
2013-06-28 05:45:00,64.4,63.5,29.59,North,32767,-999.0,0.0,97,0.00,,,0.00,Wunderground v.1.15,2013-06-28 09:45:00,
2013-06-28 05:55:00,64.3,63.4,29.59,North,32767,-999.0,0.0,97,0.00,,,0.00,Wunderground v.1.15,2013-06-28 09:55:00,
2013-06-28 06:00:00,64.2,63.3,29.59,North,32767,-999.0,0.0,97,0.00,,,0.00,Wunderground v.1.15,2013-06-28 10:00:00,
2013-06-28 06:10:00,64.0,63.1,29.59,North,32767,-999.0,0.0,97,0.00,,,0.00,Wunderground v.1.15,2013-06-28 10:10:00,
2013-06-28 06:15:00,63.9,63.0,29.59,North,32767,-999.0,0.0,97,0.00,,,0.00,Wunderground v.1.15,2013-06-28 10:15:00,
2013-06-28 06:25:00,63.7,62.5,29.59,North,32767,-999.0,0.0,96,0.00,,,0.00,Wunderground v.1.15,2013-06-28 10:25:00,
2013-06-28 06:35:00,63.5,62.3,29.59,North,32767,-999.0,0.0,96,0.00,,,0.00,Wunderground v.1.15,2013-06-28 10:35:00,
2013-06-28 06:45:00,63.5,62.3,29.59,North,32767,-999.0,0.0,96,0.00,,,0.00,Wunderground v.1.15,2013-06-28 10:45:00,
2013-06-28 06:50:00,63.6,62.4,29.59,North,32767,-999.0,0.0,96,0.00,,,0.00,Wunderground v.1.15,2013-06-28 10:50:00,
2013-06-28 07:00:00,63.6,62.4,29.59,North,32767,-999.0,0.0,96,0.00,,,0.00,Wunderground v.1.15,2013-06-28 11:00:00,
2013-06-28 07:05:00,63.7,62.5,29.59,North,32767,-999.0,0.0,96,0.00,,,0.00,Wunderground v.1.15,2013-06-28 11:05:00,
2013-06-28 07:15:00,63.6,62.4,29.59,North,32767,-999.0,0.0,96,0.00,,,0.00,Wunderground v.1.15,2013-06-28 11:15:00,
2013-06-28 07:25:00,63.9,62.7,29.59,North,32767,-999.0,0.0,96,0.00,,,0.00,Wunderground v.1.15,2013-06-28 11:25:00,
2013-06-28 07:35:00,64.2,63.0,29.60,North,32767,-999.0,0.0,96,0.00,,,0.00,Wunderground v.1.15,2013-06-28 11:35:00,
2013-06-28 07:45:00,64.8,63.6,29.59,North,32767,-999.0,0.0,96,0.00,,,0.00,Wunderground v.1.15,2013-06-28 11:45:00,
2013-06-28 07:55:00,65.3,63.8,29.59,North,32767,-999.0,0.0,95,0.00,,,0.00,Wunderground v.1.15,2013-06-28 11:55:00,
2013-06-28 08:05:00,65.9,64.1,29.59,North,32767,-999.0,0.0,94,0.00,,,0.00,Wunderground v.1.15,2013-06-28 12:05:00,
2013-06-28 08:15:00,66.4,64.0,29.59,North,32767,-999.0,0.0,92,0.00,,,0.00,Wunderground v.1.15,2013-06-28 12:15:00,
2013-06-28 08:25:00,67.2,64.5,29.59,North,32767,-999.0,0.0,91,0.00,,,0.00,Wunderground v.1.15,2013-06-28 12:25:00,
2013-06-28 08:30:00,67.5,64.1,29.59,North,32767,-999.0,0.0,89,0.00,,,0.00,Wunderground v.1.15,2013-06-28 12:30:00,
2013-06-28 08:35:00,67.8,64.1,29.59,North,32767,-999.0,0.0,88,0.00,,,0.00,Wunderground v.1.15,2013-06-28 12:35:00,
2013-06-28 08:45:00,68.5,64.5,29.59,North,32767,-999.0,0.0,87,0.00,,,0.00,Wunderground v.1.15,2013-06-28 12:45:00,
2013-06-28 08:55:00,68.9,64.2,29.59,North,32767,-999.0,0.0,85,0.00,,,0.00,Wunderground v.1.15,2013-06-28 12:55:00,
2013-06-28 09:05:00,69.1,64.7,29.59,North,32767,-999.0,0.0,86,0.00,,,0.00,Wunderground v.1.15,2013-06-28 13:05:00,
2013-06-28 09:15:00,70.1,65.7,29.59,North,32767,-999.0,0.0,86,0.00,,,0.00,Wunderground v.1.15,2013-06-28 13:15:00,
2013-06-28 09:20:00,70.6,65.9,29.59,North,32767,-999.0,0.0,85,0.00,,,0.00,Wunderground v.1.15,2013-06-28 13:20:00,
2013-06-28 09:25:00,70.5,65.1,29.59,North,32767,-999.0,0.0,83,0.00,,,0.00,Wunderground v.1.15,2013-06-28 13:25:00,
2013-06-28 09:35:00,70.7,65.3,29.59,North,32767,-999.0,0.0,83,0.00,,,0.00,Wunderground v.1.15,2013-06-28 13:35:00,
2013-06-28 09:45:00,70.7,65.3,29.59,North,32767,-999.0,0.0,83,0.00,,,0.00,Wunderground v.1.15,2013-06-28 13:45:00,
2013-06-28 09:50:00,70.5,65.4,29.59,North,32767,-999.0,0.0,84,0.00,,,0.00,Wunderground v.1.15,2013-06-28 13:50:00,
2013-06-28 10:00:00,71.0,65.6,29.59,North,32767,-999.0,0.0,83,0.00,,,0.00,Wunderground v.1.15,2013-06-28 14:00:00,
2013-06-28 10:05:00,71.4,66.0,29.59,North,32767,-999.0,0.0,83,0.00,,,0.00,Wunderground v.1.15,2013-06-28 14:05:00,
2013-06-28 10:15:00,71.8,66.0,29.59,North,32767,-999.0,0.0,82,0.00,,,0.00,Wunderground v.1.15,2013-06-28 14:15:00,
2013-06-28 10:25:00,72.5,67.0,29.58,North,32767,-999.0,0.0,83,0.00,,,0.00,Wunderground v.1.15,2013-06-28 14:25:00,
2013-06-28 10:35:00,72.2,66.0,29.58,North,32767,-999.0,0.0,81,0.00,,,0.00,Wunderground v.1.15,2013-06-28 14:35:00,
2013-06-28 10:45:00,72.9,66.7,29.58,North,32767,-999.0,0.0,81,0.00,,,0.00,Wunderground v.1.15,2013-06-28 14:45:00,
2013-06-28 10:50:00,73.4,66.9,29.58,North,32767,-999.0,0.0,80,0.00,,,0.00,Wunderground v.1.15,2013-06-28 14:50:00,
2013-06-28 10:55:00,73.3,66.0,29.58,North,32767,-999.0,0.0,78,0.00,,,0.00,Wunderground v.1.15,2013-06-28 14:55:00,
2013-06-28 11:05:00,73.8,66.5,29.58,WNW,299,0.0,3.0,78,0.00,,,0.00,Wunderground v.1.15,2013-06-28 15:05:00,
2013-06-28 11:15:00,74.6,66.1,29.57,WNW,297,5.0,7.0,75,0.00,,,0.00,Wunderground v.1.15,2013-06-28 15:15:00,
2013-06-28 11:25:00,75.1,67.0,29.57,WNW,287,4.0,8.0,76,0.00,,,0.00,Wunderground v.1.15,2013-06-28 15:25:00,
2013-06-28 11:30:00,75.5,67.0,29.57,WNW,287,4.0,5.0,75,0.00,,,0.00,Wunderground v.1.15,2013-06-28 15:30:00,
2013-06-28 11:40:00,75.7,66.8,29.57,WNW,287,4.0,6.0,74,0.00,,,0.00,Wunderground v.1.15,2013-06-28 15:40:00,
2013-06-28 11:45:00,75.8,66.9,29.57,WNW,287,4.0,6.0,74,0.00,,,0.00,Wunderground v.1.15,2013-06-28 15:45:00,
2013-06-28 11:55:00,75.9,67.0,29.57,WNW,284,5.0,8.0,74,0.00,,,0.00,Wunderground v.1.15,2013-06-28 15:55:00,
2013-06-28 12:05:00,76.5,67.6,29.57,WNW,282,4.0,6.0,74,0.00,,,0.00,Wunderground v.1.15,2013-06-28 16:05:00,
2013-06-28 12:15:00,76.9,68.4,29.57,West,265,5.0,9.0,75,0.00,,,0.00,Wunderground v.1.15,2013-06-28 16:15:00,
2013-06-28 12:25:00,76.7,67.4,29.57,WSW,254,7.0,10.0,73,0.00,,,0.00,Wunderground v.1.15,2013-06-28 16:25:00,
2013-06-28 12:30:00,76.7,67.0,29.57,WSW,254,6.0,6.0,72,0.00,,,0.00,Wunderground v.1.15,2013-06-28 16:30:00,
2013-06-28 12:40:00,76.8,67.1,29.57,WSW,250,6.0,6.0,72,0.00,,,0.00,Wunderground v.1.15,2013-06-28 16:40:00,
2013-06-28 12:45:00,76.9,67.2,29.57,WSW,250,6.0,6.0,72,0.00,,,0.00,Wunderground v.1.15,2013-06-28 16:45:00,
2013-06-28 12:55:00,77.4,66.8,29.56,WSW,250,7.0,7.0,70,0.00,,,0.00,Wunderground v.1.15,2013-06-28 16:55:00,
2013-06-28 13:05:00,77.6,66.6,29.56,WSW,255,8.0,10.0,69,0.00,,,0.00,Wunderground v.1.15,2013-06-28 17:05:00,
2013-06-28 13:15:00,77.7,66.7,29.56,WSW,242,8.0,8.0,69,0.00,,,0.00,Wunderground v.1.15,2013-06-28 17:15:00,
2013-06-28 13:25:00,77.6,67.0,29.56,West,263,9.0,12.0,70,0.00,,,0.00,Wunderground v.1.15,2013-06-28 17:25:00,
2013-06-28 13:35:00,75.9,67.0,29.56,WSW,241,11.0,14.0,74,0.00,,,0.00,Wunderground v.1.15,2013-06-28 17:35:00,
2013-06-28 13:40:00,75.6,66.7,29.56,WNW,285,10.0,10.0,74,0.00,,,0.00,Wunderground v.1.15,2013-06-28 17:40:00,
2013-06-28 13:45:00,75.6,67.5,29.56,WSW,244,9.0,12.0,76,0.00,,,0.00,Wunderground v.1.15,2013-06-28 17:45:00,
2013-06-28 13:55:00,74.9,66.4,29.56,West,261,11.0,11.0,75,0.00,,,0.00,Wunderground v.1.15,2013-06-28 17:55:00,
2013-06-28 14:05:00,75.3,66.0,29.56,WSW,248,10.0,12.0,73,0.00,,,0.00,Wunderground v.1.15,2013-06-28 18:05:00,
2013-06-28 14:15:00,75.1,66.6,29.56,West,275,11.0,11.0,75,0.00,,,0.00,Wunderground v.1.15,2013-06-28 18:15:00,
2013-06-28 14:25:00,75.0,66.9,29.56,WSW,241,11.0,12.0,76,0.00,,,0.00,Wunderground v.1.15,2013-06-28 18:25:00,
2013-06-28 14:30:00,75.0,66.1,29.56,SW,236,11.0,11.0,74,0.00,,,0.00,Wunderground v.1.15,2013-06-28 18:30:00,
2013-06-28 14:40:00,75.2,66.3,29.55,West,271,11.0,11.0,74,0.00,,,0.00,Wunderground v.1.15,2013-06-28 18:40:00,
2013-06-28 14:45:00,75.4,65.7,29.55,West,276,10.0,11.0,72,0.00,,,0.00,Wunderground v.1.15,2013-06-28 18:45:00,
2013-06-28 14:55:00,75.5,65.0,29.55,SW,232,11.0,11.0,70,0.00,,,0.00,Wunderground v.1.15,2013-06-28 18:55:00,
2013-06-28 15:05:00,75.5,64.6,29.55,SW,223,11.0,12.0,69,0.00,,,0.00,Wunderground v.1.15,2013-06-28 19:05:00,
2013-06-28 15:15:00,75.9,64.6,29.54,WSW,250,11.0,11.0,68,0.00,,,0.00,Wunderground v.1.15,2013-06-28 19:15:00,
2013-06-28 15:25:00,75.4,64.5,29.54,WNW,291,12.0,13.0,69,0.00,,,0.00,Wunderground v.1.15,2013-06-28 19:25:00,
2013-06-28 15:35:00,76.0,65.5,29.54,WSW,255,9.0,11.0,70,0.00,,,0.00,Wunderground v.1.15,2013-06-28 19:35:00,
2013-06-28 15:45:00,76.3,65.8,29.53,NNW,345,9.0,9.0,70,0.00,,,0.00,Wunderground v.1.15,2013-06-28 19:45:00,
2013-06-28 15:50:00,76.7,65.8,29.53,WNW,294,8.0,8.0,69,0.00,,,0.00,Wunderground v.1.15,2013-06-28 19:50:00,
2013-06-28 15:55:00,76.9,65.1,29.54,West,271,9.0,9.0,67,0.00,,,0.00,Wunderground v.1.15,2013-06-28 19:55:00,
2013-06-28 16:05:00,76.3,65.0,29.54,West,265,9.0,12.0,68,0.00,,,0.00,Wunderground v.1.15,2013-06-28 20:05:00,
2013-06-28 16:15:00,76.5,64.7,29.53,SW,231,10.0,13.0,67,0.00,,,0.00,Wunderground v.1.15,2013-06-28 20:15:00,
2013-06-28 16:25:00,76.2,64.4,29.53,NW,319,10.0,10.0,67,0.00,,,0.00,Wunderground v.1.15,2013-06-28 20:25:00,
2013-06-28 16:30:00,76.3,64.5,29.53,NW,306,10.0,10.0,67,0.00,,,0.00,Wunderground v.1.15,2013-06-28 20:30:00,
2013-06-28 16:40:00,76.4,65.1,29.53,WNW,300,10.0,10.0,68,0.00,,,0.00,Wunderground v.1.15,2013-06-28 20:40:00,
2013-06-28 16:50:00,75.2,64.3,29.53,WSW,252,9.0,12.0,69,0.00,,,0.00,Wunderground v.1.15,2013-06-28 20:50:00,
2013-06-28 16:55:00,74.4,63.6,29.53,WNW,284,10.0,12.0,69,0.00,,,0.00,Wunderground v.1.15,2013-06-28 20:55:00,
2013-06-28 17:05:00,73.8,63.8,29.53,West,277,9.0,10.0,71,0.00,,,0.00,Wunderground v.1.15,2013-06-28 21:05:00,
2013-06-28 17:15:00,73.5,63.9,29.54,WNW,298,8.0,11.0,72,0.00,,,0.00,Wunderground v.1.15,2013-06-28 21:15:00,
2013-06-28 17:25:00,73.7,64.5,29.54,NW,317,8.0,10.0,73,0.00,,,0.00,Wunderground v.1.15,2013-06-28 21:25:00,
2013-06-28 17:30:00,74.2,65.0,29.54,WNW,292,8.0,8.0,73,0.00,,,0.00,Wunderground v.1.15,2013-06-28 21:30:00,
2013-06-28 17:40:00,74.4,64.0,29.54,WNW,290,10.0,10.0,70,0.00,,,0.00,Wunderground v.1.15,2013-06-28 21:40:00,
2013-06-28 17:45:00,74.8,64.4,29.54,WNW,294,9.0,10.0,70,0.00,,,0.00,Wunderground v.1.15,2013-06-28 21:45:00,
2013-06-28 17:55:00,75.2,64.3,29.54,WNW,303,10.0,10.0,69,0.00,,,0.00,Wunderground v.1.15,2013-06-28 21:55:00,
2013-06-28 18:05:00,75.6,65.1,29.54,WNW,302,9.0,13.0,70,0.00,,,0.00,Wunderground v.1.15,2013-06-28 22:05:00,
2013-06-28 18:15:00,75.0,63.7,29.54,NW,313,11.0,13.0,68,0.00,,,0.00,Wunderground v.1.15,2013-06-28 22:15:00,
2013-06-28 18:25:00,74.9,64.0,29.54,NNW,327,9.0,11.0,69,0.00,,,0.00,Wunderground v.1.15,2013-06-28 22:25:00,
2013-06-28 18:30:00,75.1,64.2,29.54,WNW,292,9.0,11.0,69,0.00,,,0.00,Wunderground v.1.15,2013-06-28 22:30:00,
2013-06-28 18:35:00,75.1,64.6,29.54,NW,310,9.0,11.0,70,0.00,,,0.00,Wunderground v.1.15,2013-06-28 22:35:00,
2013-06-28 18:45:00,75.4,64.5,29.54,WSW,258,8.0,11.0,69,0.00,,,0.00,Wunderground v.1.15,2013-06-28 22:45:00,
2013-06-28 18:55:00,75.3,64.8,29.54,WNW,292,8.0,10.0,70,0.00,,,0.00,Wunderground v.1.15,2013-06-28 22:55:00,
2013-06-28 19:05:00,75.6,64.3,29.54,NW,305,8.0,11.0,68,0.00,,,0.00,Wunderground v.1.15,2013-06-28 23:05:00,
2013-06-28 19:15:00,75.7,64.0,29.54,NW,317,8.0,10.0,67,0.00,,,0.00,Wunderground v.1.15,2013-06-28 23:15:00,
2013-06-28 19:25:00,75.2,64.7,29.54,WNW,303,6.0,7.0,70,0.00,,,0.00,Wunderground v.1.15,2013-06-28 23:25:00,
2013-06-28 19:35:00,74.8,64.4,29.54,WNW,297,6.0,8.0,70,0.00,,,0.00,Wunderground v.1.15,2013-06-28 23:35:00,
2013-06-28 19:40:00,74.5,64.1,29.54,NW,309,5.0,5.0,70,0.00,,,0.00,Wunderground v.1.15,2013-06-28 23:40:00,
2013-06-28 19:50:00,74.4,64.4,29.55,NW,309,6.0,6.0,71,0.00,,,0.00,Wunderground v.1.15,2013-06-28 23:50:00,
2013-06-28 19:55:00,74.5,64.9,29.55,NNE,13,5.0,6.0,72,0.00,,,0.00,Wunderground v.1.15,2013-06-28 23:55:00,
2013-06-28 20:05:00,74.4,64.8,29.55,North,360,1.0,4.0,72,0.00,,,0.00,Wunderground v.1.15,2013-06-29 00:05:00,
2013-06-28 20:10:00,74.5,64.5,29.55,North,11,2.0,6.0,71,0.00,,,0.00,Wunderground v.1.15,2013-06-29 00:10:00,
2013-06-28 20:20:00,74.4,64.8,29.55,North,9,3.0,3.0,72,0.00,,,0.00,Wunderground v.1.15,2013-06-29 00:20:00,
2013-06-28 20:25:00,74.3,65.1,29.55,North,9,2.0,4.0,73,0.00,,,0.00,Wunderground v.1.15,2013-06-29 00:25:00,
2013-06-28 20:35:00,74.1,65.3,29.55,WNW,291,2.0,2.0,74,0.00,,,0.00,Wunderground v.1.15,2013-06-29 00:35:00,
2013-06-28 20:45:00,73.3,64.9,29.55,West,278,3.0,3.0,75,0.00,,,0.00,Wunderground v.1.15,2013-06-29 00:45:00,
2013-06-28 20:55:00,72.8,64.8,29.55,West,278,2.0,3.0,76,0.00,,,0.00,Wunderground v.1.15,2013-06-29 00:55:00,
2013-06-28 21:05:00,72.1,64.9,29.55,West,278,3.0,4.0,78,0.00,,,0.00,Wunderground v.1.15,2013-06-29 01:05:00,
2013-06-28 21:15:00,71.3,64.8,29.55,West,278,3.0,3.0,80,0.00,,,0.00,Wunderground v.1.15,2013-06-29 01:15:00,
2013-06-28 21:25:00,70.6,64.5,29.55,North,32767,-999.0,0.0,81,0.00,,,0.00,Wunderground v.1.15,2013-06-29 01:25:00,
2013-06-28 21:30:00,70.2,64.1,29.55,North,32767,-999.0,0.0,81,0.00,,,0.00,Wunderground v.1.15,2013-06-29 01:30:00,
2013-06-28 21:40:00,69.8,64.1,29.55,North,32767,-999.0,0.0,82,0.00,,,0.00,Wunderground v.1.15,2013-06-29 01:40:00,
2013-06-28 21:45:00,69.6,63.9,29.55,North,32767,-999.0,0.0,82,0.00,,,0.00,Wunderground v.1.15,2013-06-29 01:45:00,
2013-06-28 21:55:00,69.2,63.8,29.55,North,32767,-999.0,0.0,83,0.00,,,0.00,Wunderground v.1.15,2013-06-29 01:55:00,
2013-06-28 22:05:00,68.7,63.3,29.55,North,32767,-999.0,0.0,83,0.00,,,0.00,Wunderground v.1.15,2013-06-29 02:05:00,
2013-06-28 22:15:00,68.1,63.1,29.56,North,32767,-999.0,0.0,84,0.00,,,0.00,Wunderground v.1.15,2013-06-29 02:15:00,
2013-06-28 22:20:00,67.9,63.2,29.56,North,32767,-999.0,0.0,85,0.00,,,0.00,Wunderground v.1.15,2013-06-29 02:20:00,
2013-06-28 22:30:00,67.7,63.4,29.57,North,32767,-999.0,0.0,86,0.00,,,0.00,Wunderground v.1.15,2013-06-29 02:30:00,
2013-06-28 22:35:00,67.7,63.7,29.56,North,32767,-999.0,0.0,87,0.00,,,0.00,Wunderground v.1.15,2013-06-29 02:35:00,
2013-06-28 22:45:00,67.7,63.7,29.56,North,32767,-999.0,0.0,87,0.00,,,0.00,Wunderground v.1.15,2013-06-29 02:45:00,
2013-06-28 22:55:00,67.5,63.8,29.56,North,32767,-999.0,0.0,88,0.00,,,0.01,Wunderground v.1.15,2013-06-29 02:55:00,
2013-06-28 23:05:00,67.3,63.9,29.55,North,32767,-999.0,0.0,89,0.00,,,0.01,Wunderground v.1.15,2013-06-29 03:05:00,
2013-06-28 23:15:00,66.9,63.6,29.55,North,32767,-999.0,0.0,89,0.00,,,0.01,Wunderground v.1.15,2013-06-29 03:15:00,
2013-06-28 23:20:00,66.9,63.9,29.55,North,32767,-999.0,0.0,90,0.00,,,0.02,Wunderground v.1.15,2013-06-29 03:20:00,
2013-06-28 23:25:00,66.6,63.6,29.55,North,32767,-999.0,0.0,90,0.00,,,0.02,Wunderground v.1.15,2013-06-29 03:25:00,
2013-06-28 23:35:00,66.5,63.8,29.55,North,32767,-999.0,0.0,91,0.00,,,0.02,Wunderground v.1.15,2013-06-29 03:35:00,
2013-06-28 23:45:00,66.2,63.5,29.55,North,32767,-999.0,0.0,91,0.00,,,0.02,Wunderground v.1.15,2013-06-29 03:45:00,
2013-06-28 23:55:00,66.0,63.6,29.55,North,32767,-999.0,0.0,92,0.00,,,0.02,Wunderground v.1.15,2013-06-29 03:55:00,